Flight Track Log - Related Links

Times and Time Zones

All times are in EDT time to prevent confusion due to time zone crossing. See the EGF4218 flight status page for this flight to view local times or setup timezone preferences in your user account.

Time Position Orientation Groundspeed Altitude Reporting Facility
EDT Latitude Longitude Course Direction KTS MPH feet Rate Location/Type
Mon 10:31:32 41.9833 -88.0000 194° South 205 236 3,300  Level Chicago TRACON
Mon 10:32:00 41.8495 -88.1145 206° Southwest  Level Estimated
Mon 10:32:32 41.9333 -88.0333 206° Southwest 234 269 4,800  Level Chicago TRACON
Mon 10:33:00 41.7833 -88.2180 203° Southwest  Level Estimated
Mon 10:33:51 41.8494 -88.0306 179° South 241 277 5,000  Level Chicago Center
Mon 10:34:00 41.7170 -88.3214 197° South  Level Estimated
Mon 10:34:53 41.7639 -88.0203 175° South 255 293 6,900  Level Chicago Center
Mon 10:35:00 41.6243 -88.2652 156° South  Level FlightAware Approximate
Mon 10:35:55 41.6889 -88.0231 182° South 272 313 9,200  Level Chicago Center
Mon 10:36:00 41.5597 -88.3681 194° South  Level Estimated
Mon 10:36:57 41.6200 -88.0633 204° Southwest 270 311 11,400  Level Chicago Center
Mon 10:37:59 41.5494 -88.1028 203° Southwest 277 319 13,000 1,694 Climbing Chicago Center
Mon 10:39:01 41.4589 -88.1511 202° Southwest 297 342 14,900 1,500 Climbing Chicago Center
Mon 10:40:03 41.3803 -88.1936 202° Southwest 315 362 16,100 1,113 Climbing Chicago Center
Mon 10:41:05 41.2931 -88.2311 198° South 330 380 17,200 1,016 Climbing Chicago Center
Mon 10:42:07 41.2014 -88.2725 199° South 341 392 18,200 1,161 Climbing Chicago Center
Mon 10:43:09 41.0856 -88.3258 199° South 363 418 19,600 1,403 Climbing Chicago Center
Mon 10:44:11 40.9886 -88.3697 199° South 369 425 21,100 1,452 Climbing Chicago Center
Mon 10:45:13 40.8917 -88.4122 198° South 369 425 22,600 1,452 Climbing Chicago Center
Mon 10:46:15 40.7961 -88.4561 199° South 367 422 24,100 1,306 Climbing Chicago Center
Mon 10:47:17 40.7006 -88.4981 198° South 365 420 25,300 1,065 Climbing Chicago Center
Mon 10:48:19 40.6022 -88.5414 199° South 372 428 26,300 1,113 Climbing Chicago Center
Mon 10:49:21 40.4847 -88.5947 199° South 374 430 27,600 1,065 Climbing Chicago Center
Mon 10:50:23 40.3964 -88.6322 198° South 378 435 28,500 1,016 Climbing Chicago Center
Mon 10:51:25 40.3050 -88.6922 207° Southwest 376 433 29,700 1,210 Climbing Chicago Center
Mon 10:52:27 40.2303 -88.8144 231° Southwest 360 414 31,000 1,113 Climbing Chicago Center
Mon 10:53:29 40.1689 -88.9189 232° Southwest 361 415 32,000 968 Climbing Chicago Center
Mon 10:54:31 40.1067 -89.0244 232° Southwest 364 419 33,000 1,065 Climbing Chicago Center
Mon 10:55:16 40.0539 -89.1086 231° Southwest 364 419 33,900 1,065 Climbing Kansas City Center
Mon 10:56:18 39.9908 -89.2150 232° Southwest 368 423 34,900 968 Climbing Kansas City Center
Mon 10:57:20 39.9286 -89.3186 232° Southwest 364 419 35,900 532 Climbing Kansas City Center
Mon 10:58:22 39.8664 -89.4222 232° Southwest 363 418 36,000 48 Climbing Kansas City Center
Mon 10:59:24 39.8000 -89.5311 232° Southwest 376 433 36,000  Level Kansas City Center
Mon 11:00:26 39.7328 -89.6439 232° Southwest 388 447 36,000  Level Kansas City Center
Mon 11:01:28 39.6544 -89.7708 231° Southwest 391 450 36,000  Level Kansas City Center
Mon 11:02:30 39.5881 -89.8817 232° Southwest 391 450 36,000  Level Kansas City Center
Mon 11:03:32 39.5197 -89.9925 231° Southwest 393 452 36,000  Level Kansas City Center
Mon 11:04:34 39.4531 -90.1017 232° Southwest 391 450 36,000  Level Kansas City Center
Mon 11:05:36 39.3853 -90.2111 231° Southwest 391 450 36,000  Level Kansas City Center
Mon 11:06:39 39.3042 -90.3428 232° Southwest 392 451 36,000  Level Kansas City Center
Mon 11:07:41 39.2361 -90.4511 231° Southwest 391 450 36,000  Level Kansas City Center
Mon 11:08:43 39.1692 -90.5592 231° Southwest 390 449 36,000  Level Kansas City Center
Mon 11:09:45 39.1014 -90.6667 231° Southwest 390 449 36,000  Level Kansas City Center
Mon 11:10:47 39.0356 -90.7719 231° Southwest 385 443 36,000  Level Kansas City Center
Mon 11:11:49 38.9553 -90.9008 227° Southwest 388 447 36,000  Level Kansas City Center
Mon 11:12:00 38.9531 -90.8840 227° Southwest  Level FlightAware Approximate
Mon 11:12:51 38.8892 -91.0083 232° Southwest 388 447 36,000  Level Kansas City Center
Mon 11:13:53 38.8336 -91.1250 239° Southwest 388 447 36,000  Level Kansas City Center
Mon 11:14:55 38.7786 -91.2400 238° Southwest 383 441 36,000  Level Kansas City Center
Mon 11:15:57 38.7208 -91.3550 237° Southwest 385 443 36,000  Level Kansas City Center
Mon 11:16:59 38.6575 -91.4808 237° Southwest 383 441 36,000  Level Kansas City Center
Mon 11:18:01 38.6017 -91.5956 238° Southwest 380 437 36,000  Level Kansas City Center
Mon 11:19:03 38.5317 -91.7319 237° Southwest 381 438 36,000  Level Kansas City Center
Mon 11:20:05 38.4728 -91.8453 236° Southwest 382 440 36,000  Level Kansas City Center
Mon 11:21:07 38.4156 -91.9600 238° Southwest 383 441 36,000  Level Kansas City Center
Mon 11:22:09 38.3569 -92.0733 237° Southwest 383 441 36,000  Level Kansas City Center
Mon 11:23:11 38.2981 -92.1872 237° Southwest 385 443 36,000  Level Kansas City Center
Mon 11:24:13 38.2400 -92.2994 237° Southwest 383 441 36,000  Level Kansas City Center
Mon 11:25:15 38.1781 -92.4219 237° Southwest 384 442 36,000  Level Kansas City Center
Mon 11:26:17 38.1194 -92.5361 237° Southwest 387 445 36,000  Level Kansas City Center
Mon 11:27:19 38.0603 -92.6511 237° Southwest 389 448 36,000  Level Kansas City Center
Mon 11:28:21 37.9947 -92.7728 236° Southwest 387 445 36,000  Level Kansas City Center
Mon 11:29:23 37.9356 -92.8858 236° Southwest 386 444 36,000  Level Kansas City Center
Mon 11:30:25 37.8642 -93.0222 236° Southwest 387 445 36,000  Level Kansas City Center
Mon 11:31:27 37.8042 -93.1353 236° Southwest 386 444 36,000  Level Kansas City Center
Mon 11:32:29 37.7453 -93.2475 236° Southwest 385 443 36,000  Level Kansas City Center
Mon 11:33:31 37.6858 -93.3603 236° Southwest 385 443 36,000  Level Kansas City Center
Mon 11:34:33 37.6256 -93.4753 237° Southwest 391 450 36,000  Level Kansas City Center
Mon 11:35:35 37.5642 -93.5886 236° Southwest 391 450 36,000  Level Kansas City Center
Mon 11:36:37 37.5036 -93.7025 236° Southwest 391 450 36,000  Level Kansas City Center
Mon 11:37:39 37.4297 -93.8394 236° Southwest 393 452 36,000  Level Kansas City Center
Mon 11:38:41 37.3681 -93.9536 236° Southwest 394 453 36,000 -48 Level Kansas City Center
Mon 11:39:43 37.3069 -94.0672 236° Southwest 392 451 35,900 -480 Descending Kansas City Center
Mon 11:40:46 37.2483 -94.1772 236° Southwest 388 447 35,000 -912 Descending Kansas City Center
Mon 11:41:48 37.1886 -94.2856 235° Southwest 381 438 34,000 -968 Descending Kansas City Center
Mon 11:42:50 37.1292 -94.3942 236° Southwest 377 434 33,000 -1,065 Descending Kansas City Center
Mon 11:43:52 37.0553 -94.5289 236° Southwest 388 447 31,800 -968 Descending Kansas City Center
Mon 11:44:54 36.9914 -94.6431 235° Southwest 397 457 31,000 -1,210 Descending Kansas City Center
Mon 11:45:56 36.9281 -94.7567 235° Southwest 398 458 29,300 -2,274 Descending Kansas City Center
Mon 11:46:58 36.8653 -94.8667 235° Southwest 391 450 26,300 -3,053 Descending Kansas City Center
Mon 11:47:50 36.8064 -94.9714 235° Southwest 391 450 23,500 -3,084 Descending Kansas City Center
Mon 11:48:45 36.7503 -95.0706 235° Southwest 388 447 20,800 -2,583 Descending Kansas City Center
Mon 11:49:02 36.7433 -95.0858 240° Southwest 385 443 20,400 -2,852 Descending Kansas City Center
Mon 11:49:46 36.6908 -95.1781 235° Southwest 375 432 17,900 -3,194 Descending Kansas City Center
Mon 11:50:04 36.6731 -95.2117 237° Southwest 372 428 17,100 -2,500 Descending Kansas City Center
Mon 11:50:46 36.6261 -95.2731 226° Southwest 359 413 15,400 -2,419 Descending Kansas City Center
Mon 11:51:06 36.6042 -95.3019 227° Southwest 362 417 14,600 -2,557 Descending Kansas City Center
Mon 11:51:47 36.5533 -95.3769 230° Southwest 367 422 12,800 -2,419 Descending Kansas City Center
Mon 11:52:08 36.5417 -95.4014 239° Southwest 369 425 12,100 -2,301 Descending Kansas City Center
Mon 11:53:00 36.4972 -95.4989 240° Southwest 359 413 10,000 -1,646 Descending Kansas City Center
Mon 11:54:01 36.4544 -95.5853 238° Southwest 270 311 9,000 -1,513 Descending Kansas City Center
Mon 11:54:55 36.4208 -95.6572 240° Southwest 252 290 7,100 -2,055 Descending Kansas City Center
Mon 11:55:14 36.4094 -95.6817 240° Southwest 268 308 6,500 -2,073 Descending Kansas City Center
Mon 11:55:50 36.3867 -95.7242 236° Southwest 244 281 5,200 -1,935 Descending Kansas City Center
Mon 11:56:16 36.3750 -95.7519 242° Southwest 250 288 4,500 -1,300 Descending Kansas City Center
Mon 11:56:50 36.3550 -95.7933 239° Southwest 224 258 3,900 -1,059 Descending Kansas City Center

Login

Don't have an account? Register now (free) for customized features, flight alerts, and more!